Terminal Aerodrome Forecast
Issued by NWS Sterling, VA

Current Version | Previous Version | Text Only | Print | Product List | Glossary Off
Versions: 1 2 3 4 5 6 7 8 9 10 11 12 13 14 15 16 17 18 19 20 21 22 23 24 25 26

000
FTUS41 KLWX 281452 AAA
TAFIAD
TAF AMD
KIAD 281452Z 2815/2918 19005KT P6SM SCT250
     FM281900 17009KT P6SM SCT250
     FM290300 17005KT P6SM FEW200
     FM291200 17004KT 5SM -SHRA BKN050=

USA.gov is the U.S. government's official web portal to all federal, state and local government web resources and services.